<?xml version="1.0" encoding="UTF-8" standalone="no" ?>
<gpx xmlns="http://www.topografix.com/GPX/1/1" xmlns:xsi="http://www.w3.org/2001/XMLSchema-instance" xsi:schemaLocation="http://www.topografix.com/GPX/1/1 http://www.topografix.com/GPX/1/1/gpx.xsd" version="1.1" creator="VisuGPX - https://www.visugpx.com">
  <metadata>
    <name>boucle poussin</name>
    <desc><![CDATA[boucle poussin TRJV]]></desc>
  </metadata>
  <trk>
    <name><![CDATA[2013-06-16T10:47:54Z]]></name>
    <trkseg>
      <trkpt lat="45.65176" lon="5.98679">
        <ele>1339.208</ele>
        <time>2013-06-16T10:47:55Z</time>
      </trkpt>
      <trkpt lat="45.65176" lon="5.98679">
        <ele>1339.218</ele>
        <time>2013-06-16T10:47:57Z</time>
      </trkpt>
      <trkpt lat="45.65184" lon="5.98681">
        <ele>1339.729</ele>
        <time>2013-06-16T10:48:02Z</time>
      </trkpt>
      <trkpt lat="45.65202" lon="5.98691">
        <ele>1340.309</ele>
        <time>2013-06-16T10:48:08Z</time>
      </trkpt>
      <trkpt lat="45.65218" lon="5.98707">
        <ele>1342.171</ele>
        <time>2013-06-16T10:48:14Z</time>
      </trkpt>
      <trkpt lat="45.65231" lon="5.98726">
        <ele>1343.87</ele>
        <time>2013-06-16T10:48:21Z</time>
      </trkpt>
      <trkpt lat="45.65244" lon="5.98736">
        <ele>1343.869</ele>
        <time>2013-06-16T10:48:26Z</time>
      </trkpt>
      <trkpt lat="45.65273" lon="5.98751">
        <ele>1344.8</ele>
        <time>2013-06-16T10:48:34Z</time>
      </trkpt>
      <trkpt lat="45.65293" lon="5.98758">
        <ele>1346.811</ele>
        <time>2013-06-16T10:48:40Z</time>
      </trkpt>
      <trkpt lat="45.65311" lon="5.98762">
        <ele>1349.22</ele>
        <time>2013-06-16T10:48:46Z</time>
      </trkpt>
      <trkpt lat="45.65329" lon="5.98774">
        <ele>1350.68</ele>
        <time>2013-06-16T10:48:52Z</time>
      </trkpt>
      <trkpt lat="45.65335" lon="5.98788">
        <ele>1350.029</ele>
        <time>2013-06-16T10:48:56Z</time>
      </trkpt>
      <trkpt lat="45.65341" lon="5.98809">
        <ele>1351.559</ele>
        <time>2013-06-16T10:49:02Z</time>
      </trkpt>
      <trkpt lat="45.6534" lon="5.98818">
        <ele>1352.189</ele>
        <time>2013-06-16T10:49:04Z</time>
      </trkpt>
      <trkpt lat="45.65324" lon="5.98825">
        <ele>1348.966</ele>
        <time>2013-06-16T10:49:08Z</time>
      </trkpt>
      <trkpt lat="45.65299" lon="5.98825">
        <ele>1346.827</ele>
        <time>2013-06-16T10:49:12Z</time>
      </trkpt>
      <trkpt lat="45.65275" lon="5.98821">
        <ele>1345.698</ele>
        <time>2013-06-16T10:49:16Z</time>
      </trkpt>
      <trkpt lat="45.65256" lon="5.98833">
        <ele>1343.206</ele>
        <time>2013-06-16T10:49:20Z</time>
      </trkpt>
      <trkpt lat="45.65233" lon="5.98854">
        <ele>1339.827</ele>
        <time>2013-06-16T10:49:25Z</time>
      </trkpt>
      <trkpt lat="45.65225" lon="5.98844">
        <ele>1338.069</ele>
        <time>2013-06-16T10:49:29Z</time>
      </trkpt>
      <trkpt lat="45.65224" lon="5.98827">
        <ele>1338</ele>
        <time>2013-06-16T10:49:32Z</time>
      </trkpt>
      <trkpt lat="45.65214" lon="5.98807">
        <ele>1337.539</ele>
        <time>2013-06-16T10:49:36Z</time>
      </trkpt>
      <trkpt lat="45.65192" lon="5.98783">
        <ele>1338.43</ele>
        <time>2013-06-16T10:49:43Z</time>
      </trkpt>
      <trkpt lat="45.65186" lon="5.98764">
        <ele>1338.78</ele>
        <time>2013-06-16T10:49:47Z</time>
      </trkpt>
      <trkpt lat="45.65185" lon="5.98741">
        <ele>1339.68</ele>
        <time>2013-06-16T10:49:52Z</time>
      </trkpt>
      <trkpt lat="45.65179" lon="5.98712">
        <ele>1339.649</ele>
        <time>2013-06-16T10:49:58Z</time>
      </trkpt>
      <trkpt lat="45.65175" lon="5.98684">
        <ele>1339.61</ele>
        <time>2013-06-16T10:50:03Z</time>
      </trkpt>
      <trkpt lat="45.65174" lon="5.9868">
        <ele>1339.796</ele>
        <time>2013-06-16T10:50:04Z</time>
      </trkpt>
    </trkseg>
  </trk>
</gpx>